sensor_id;sensor_type;location;lat;lon;timestamp;P1;durP1;ratioP1;P2;durP2;ratioP2
46054;SDS011;31788;6.954;-71.872;2023-05-18T00:01:12;10.55;;;6.32;;
46054;SDS011;31788;6.954;-71.872;2023-05-18T00:03:39;9.13;;;4.73;;
46054;SDS011;31788;6.954;-71.872;2023-05-18T00:06:06;7.30;;;4.00;;
46054;SDS011;31788;6.954;-71.872;2023-05-18T00:08:34;9.80;;;4.03;;
46054;SDS011;31788;6.954;-71.872;2023-05-18T00:11:01;8.17;;;4.20;;
46054;SDS011;31788;6.954;-71.872;2023-05-18T00:13:29;11.30;;;4.60;;
46054;SDS011;31788;6.954;-71.872;2023-05-18T00:15:56;11.80;;;5.47;;
46054;SDS011;31788;6.954;-71.872;2023-05-18T00:18:22;11.60;;;5.72;;
46054;SDS011;31788;6.954;-71.872;2023-05-18T00:20:51;14.15;;;5.40;;
46054;SDS011;31788;6.954;-71.872;2023-05-18T00:23:27;10.60;;;5.00;;
46054;SDS011;31788;6.954;-71.872;2023-05-18T00:25:58;13.57;;;5.07;;
46054;SDS011;31788;6.954;-71.872;2023-05-18T00:28:25;11.30;;;5.03;;
46054;SDS011;31788;6.954;-71.872;2023-05-18T00:30:53;8.77;;;4.50;;
46054;SDS011;31788;6.954;-71.872;2023-05-18T00:33:20;8.18;;;3.83;;
46054;SDS011;31788;6.954;-71.872;2023-05-18T00:35:47;8.00;;;3.80;;
46054;SDS011;31788;6.954;-71.872;2023-05-18T00:38:14;11.15;;;5.35;;
46054;SDS011;31788;6.954;-71.872;2023-05-18T00:40:40;12.95;;;5.57;;
46054;SDS011;31788;6.954;-71.872;2023-05-18T00:43:08;11.02;;;4.88;;
46054;SDS011;31788;6.954;-71.872;2023-05-18T00:45:34;10.65;;;4.20;;
46054;SDS011;31788;6.954;-71.872;2023-05-18T00:48:01;7.82;;;3.60;;
46054;SDS011;31788;6.954;-71.872;2023-05-18T00:50:28;7.85;;;3.63;;
46054;SDS011;31788;6.954;-71.872;2023-05-18T00:52:56;7.53;;;3.85;;
46054;SDS011;31788;6.954;-71.872;2023-05-18T00:55:23;9.82;;;3.83;;
46054;SDS011;31788;6.954;-71.872;2023-05-18T00:57:51;9.23;;;3.70;;
46054;SDS011;31788;6.954;-71.872;2023-05-18T01:00:20;9.57;;;4.75;;
46054;SDS011;31788;6.954;-71.872;2023-05-18T01:02:48;11.50;;;4.80;;
46054;SDS011;31788;6.954;-71.872;2023-05-18T01:05:15;9.32;;;4.38;;
46054;SDS011;31788;6.954;-71.872;2023-05-18T01:07:46;7.47;;;3.50;;
46054;SDS011;31788;6.954;-71.872;2023-05-18T01:10:15;8.15;;;3.20;;
46054;SDS011;31788;6.954;-71.872;2023-05-18T01:15:15;8.00;;;3.00;;
46054;SDS011;31788;6.954;-71.872;2023-05-18T01:18:00;9.02;;;3.10;;
46054;SDS011;31788;6.954;-71.872;2023-05-18T01:21:09;7.33;;;3.00;;
46054;SDS011;31788;6.954;-71.872;2023-05-18T01:26:50;10.88;;;3.28;;
46054;SDS011;31788;6.954;-71.872;2023-05-18T01:29:21;17.08;;;3.75;;
46054;SDS011;31788;6.954;-71.872;2023-05-18T01:31:54;7.57;;;2.83;;
46054;SDS011;31788;6.954;-71.872;2023-05-18T01:34:22;11.85;;;2.78;;
46054;SDS011;31788;6.954;-71.872;2023-05-18T01:36:49;9.55;;;2.70;;
46054;SDS011;31788;6.954;-71.872;2023-05-18T01:39:16;7.78;;;2.75;;
46054;SDS011;31788;6.954;-71.872;2023-05-18T01:41:55;6.63;;;2.63;;
46054;SDS011;31788;6.954;-71.872;2023-05-18T01:44:33;7.22;;;2.67;;
46054;SDS011;31788;6.954;-71.872;2023-05-18T01:47:12;7.80;;;2.75;;
46054;SDS011;31788;6.954;-71.872;2023-05-18T01:49:42;6.13;;;2.50;;
46054;SDS011;31788;6.954;-71.872;2023-05-18T01:52:18;5.93;;;2.30;;
46054;SDS011;31788;6.954;-71.872;2023-05-18T01:54:51;7.20;;;2.60;;
46054;SDS011;31788;6.954;-71.872;2023-05-18T01:57:23;6.47;;;2.20;;
46054;SDS011;31788;6.954;-71.872;2023-05-18T01:59:52;7.60;;;2.45;;
46054;SDS011;31788;6.954;-71.872;2023-05-18T02:02:19;5.15;;;2.22;;
46054;SDS011;31788;6.954;-71.872;2023-05-18T02:04:46;4.63;;;2.20;;
46054;SDS011;31788;6.954;-71.872;2023-05-18T02:07:13;5.45;;;2.45;;
46054;SDS011;31788;6.954;-71.872;2023-05-18T02:09:40;5.47;;;2.40;;
46054;SDS011;31788;6.954;-71.872;2023-05-18T02:12:08;3.15;;;2.10;;
46054;SDS011;31788;6.954;-71.872;2023-05-18T02:14:36;4.30;;;2.22;;
46054;SDS011;31788;6.954;-71.872;2023-05-18T02:17:02;5.57;;;2.80;;
46054;SDS011;31788;6.954;-71.872;2023-05-18T02:19:31;6.03;;;2.50;;
46054;SDS011;31788;6.954;-71.872;2023-05-18T02:22:05;4.95;;;2.42;;
46054;SDS011;31788;6.954;-71.872;2023-05-18T02:24:32;4.50;;;2.20;;
46054;SDS011;31788;6.954;-71.872;2023-05-18T02:26:59;4.72;;;2.08;;
46054;SDS011;31788;6.954;-71.872;2023-05-18T02:29:26;3.90;;;2.10;;
46054;SDS011;31788;6.954;-71.872;2023-05-18T02:31:53;3.95;;;2.10;;
46054;SDS011;31788;6.954;-71.872;2023-05-18T02:34:19;3.10;;;1.70;;
46054;SDS011;31788;6.954;-71.872;2023-05-18T02:36:49;4.18;;;2.03;;
46054;SDS011;31788;6.954;-71.872;2023-05-18T02:39:16;3.60;;;2.00;;
46054;SDS011;31788;6.954;-71.872;2023-05-18T02:41:42;4.85;;;2.15;;
46054;SDS011;31788;6.954;-71.872;2023-05-18T02:44:10;4.18;;;2.55;;
46054;SDS011;31788;6.954;-71.872;2023-05-18T02:46:37;5.10;;;2.50;;
46054;SDS011;31788;6.954;-71.872;2023-05-18T02:49:03;4.63;;;2.00;;
46054;SDS011;31788;6.954;-71.872;2023-05-18T02:51:30;4.10;;;1.70;;
46054;SDS011;31788;6.954;-71.872;2023-05-18T02:53:57;6.25;;;1.85;;
46054;SDS011;31788;6.954;-71.872;2023-05-18T02:56:23;3.95;;;1.80;;
46054;SDS011;31788;6.954;-71.872;2023-05-18T02:58:50;6.03;;;1.80;;
46054;SDS011;31788;6.954;-71.872;2023-05-18T03:01:22;4.40;;;1.80;;
46054;SDS011;31788;6.954;-71.872;2023-05-18T03:03:52;2.97;;;1.60;;
46054;SDS011;31788;6.954;-71.872;2023-05-18T03:06:19;4.57;;;1.80;;
46054;SDS011;31788;6.954;-71.872;2023-05-18T03:08:53;3.83;;;1.80;;
46054;SDS011;31788;6.954;-71.872;2023-05-18T03:11:20;3.63;;;1.70;;
46054;SDS011;31788;6.954;-71.872;2023-05-18T03:13:48;2.80;;;1.70;;
46054;SDS011;31788;6.954;-71.872;2023-05-18T03:16:14;4.07;;;1.77;;
46054;SDS011;31788;6.954;-71.872;2023-05-18T03:18:41;4.68;;;1.80;;
46054;SDS011;31788;6.954;-71.872;2023-05-18T03:21:08;5.38;;;1.55;;
46054;SDS011;31788;6.954;-71.872;2023-05-18T03:23:38;4.03;;;1.70;;
46054;SDS011;31788;6.954;-71.872;2023-05-18T03:26:05;4.05;;;1.60;;
46054;SDS011;31788;6.954;-71.872;2023-05-18T03:28:38;2.83;;;1.50;;
46054;SDS011;31788;6.954;-71.872;2023-05-18T03:31:04;5.37;;;2.03;;
46054;SDS011;31788;6.954;-71.872;2023-05-18T03:33:31;6.03;;;1.85;;
46054;SDS011;31788;6.954;-71.872;2023-05-18T03:36:02;5.50;;;2.10;;
46054;SDS011;31788;6.954;-71.872;2023-05-18T03:38:29;2.42;;;1.60;;
46054;SDS011;31788;6.954;-71.872;2023-05-18T03:40:56;4.57;;;1.65;;
46054;SDS011;31788;6.954;-71.872;2023-05-18T03:43:23;5.88;;;1.67;;
46054;SDS011;31788;6.954;-71.872;2023-05-18T03:45:50;3.78;;;1.70;;
46054;SDS011;31788;6.954;-71.872;2023-05-18T03:48:17;2.65;;;1.55;;
46054;SDS011;31788;6.954;-71.872;2023-05-18T03:50:45;3.85;;;1.65;;
46054;SDS011;31788;6.954;-71.872;2023-05-18T03:53:12;4.13;;;1.67;;
46054;SDS011;31788;6.954;-71.872;2023-05-18T03:55:43;3.13;;;1.67;;
46054;SDS011;31788;6.954;-71.872;2023-05-18T03:58:10;5.10;;;1.67;;
46054;SDS011;31788;6.954;-71.872;2023-05-18T04:00:37;5.22;;;1.98;;
46054;SDS011;31788;6.954;-71.872;2023-05-18T04:03:04;2.80;;;1.70;;
46054;SDS011;31788;6.954;-71.872;2023-05-18T04:05:31;4.55;;;1.67;;
46054;SDS011;31788;6.954;-71.872;2023-05-18T04:07:58;4.55;;;1.67;;
46054;SDS011;31788;6.954;-71.872;2023-05-18T04:10:25;4.50;;;1.92;;
46054;SDS011;31788;6.954;-71.872;2023-05-18T04:12:51;2.67;;;1.52;;
46054;SDS011;31788;6.954;-71.872;2023-05-18T04:15:18;3.72;;;1.50;;
46054;SDS011;31788;6.954;-71.872;2023-05-18T04:17:45;4.13;;;1.50;;
46054;SDS011;31788;6.954;-71.872;2023-05-18T04:20:13;4.22;;;1.50;;
46054;SDS011;31788;6.954;-71.872;2023-05-18T04:22:40;3.47;;;1.75;;
46054;SDS011;31788;6.954;-71.872;2023-05-18T04:25:15;5.40;;;1.85;;
46054;SDS011;31788;6.954;-71.872;2023-05-18T04:27:42;4.32;;;1.73;;
46054;SDS011;31788;6.954;-71.872;2023-05-18T04:30:12;7.18;;;1.90;;
46054;SDS011;31788;6.954;-71.872;2023-05-18T04:32:39;4.07;;;1.80;;
46054;SDS011;31788;6.954;-71.872;2023-05-18T04:35:07;2.75;;;1.50;;
46054;SDS011;31788;6.954;-71.872;2023-05-18T04:37:35;4.03;;;1.70;;
46054;SDS011;31788;6.954;-71.872;2023-05-18T04:40:06;4.50;;;1.77;;
46054;SDS011;31788;6.954;-71.872;2023-05-18T04:42:39;5.45;;;1.70;;
46054;SDS011;31788;6.954;-71.872;2023-05-18T04:45:15;4.93;;;1.75;;
46054;SDS011;31788;6.954;-71.872;2023-05-18T04:47:44;4.07;;;1.80;;
46054;SDS011;31788;6.954;-71.872;2023-05-18T04:50:15;5.80;;;2.13;;
46054;SDS011;31788;6.954;-71.872;2023-05-18T04:52:42;6.30;;;2.05;;
46054;SDS011;31788;6.954;-71.872;2023-05-18T04:55:16;4.95;;;1.77;;
46054;SDS011;31788;6.954;-71.872;2023-05-18T04:57:50;4.63;;;1.88;;
46054;SDS011;31788;6.954;-71.872;2023-05-18T05:00:24;2.95;;;1.50;;
46054;SDS011;31788;6.954;-71.872;2023-05-18T05:02:53;5.10;;;1.92;;
46054;SDS011;31788;6.954;-71.872;2023-05-18T05:05:21;4.70;;;2.00;;
46054;SDS011;31788;6.954;-71.872;2023-05-18T05:07:48;3.72;;;1.80;;
46054;SDS011;31788;6.954;-71.872;2023-05-18T05:10:16;7.10;;;1.80;;
46054;SDS011;31788;6.954;-71.872;2023-05-18T05:12:43;7.07;;;1.88;;
46054;SDS011;31788;6.954;-71.872;2023-05-18T05:15:10;5.85;;;1.90;;
46054;SDS011;31788;6.954;-71.872;2023-05-18T05:17:37;4.43;;;1.90;;
46054;SDS011;31788;6.954;-71.872;2023-05-18T05:20:04;4.63;;;1.92;;
46054;SDS011;31788;6.954;-71.872;2023-05-18T05:22:31;4.43;;;1.80;;
46054;SDS011;31788;6.954;-71.872;2023-05-18T05:24:57;5.63;;;1.88;;
46054;SDS011;31788;6.954;-71.872;2023-05-18T05:27:24;4.10;;;1.80;;
46054;SDS011;31788;6.954;-71.872;2023-05-18T05:29:51;3.75;;;1.65;;
46054;SDS011;31788;6.954;-71.872;2023-05-18T05:32:17;5.22;;;1.90;;
46054;SDS011;31788;6.954;-71.872;2023-05-18T05:34:44;4.85;;;1.77;;
46054;SDS011;31788;6.954;-71.872;2023-05-18T05:37:12;4.63;;;1.90;;
46054;SDS011;31788;6.954;-71.872;2023-05-18T06:11:52;3.13;;;1.77;;
46054;SDS011;31788;6.954;-71.872;2023-05-18T06:14:19;4.45;;;2.00;;
46054;SDS011;31788;6.954;-71.872;2023-05-18T06:16:45;6.03;;;2.20;;
46054;SDS011;31788;6.954;-71.872;2023-05-18T06:19:12;2.80;;;1.90;;
46054;SDS011;31788;6.954;-71.872;2023-05-18T06:21:39;3.30;;;1.87;;
46054;SDS011;31788;6.954;-71.872;2023-05-18T06:24:06;5.13;;;2.08;;
46054;SDS011;31788;6.954;-71.872;2023-05-18T06:26:32;5.15;;;2.10;;
46054;SDS011;31788;6.954;-71.872;2023-05-18T06:28:59;7.05;;;2.10;;
46054;SDS011;31788;6.954;-71.872;2023-05-18T06:31:26;4.95;;;2.05;;
46054;SDS011;31788;6.954;-71.872;2023-05-18T07:10:43;6.28;;;2.13;;
46054;SDS011;31788;6.954;-71.872;2023-05-18T07:13:10;4.55;;;1.92;;
46054;SDS011;31788;6.954;-71.872;2023-05-18T07:15:38;6.47;;;2.17;;
46054;SDS011;31788;6.954;-71.872;2023-05-18T07:18:04;5.05;;;2.30;;
46054;SDS011;31788;6.954;-71.872;2023-05-18T07:20:31;4.90;;;2.10;;
46054;SDS011;31788;6.954;-71.872;2023-05-18T07:22:58;4.63;;;2.17;;
46054;SDS011;31788;6.954;-71.872;2023-05-18T07:25:24;5.50;;;2.22;;
46054;SDS011;31788;6.954;-71.872;2023-05-18T07:27:52;8.75;;;2.45;;
46054;SDS011;31788;6.954;-71.872;2023-05-18T07:30:20;4.22;;;2.08;;
46054;SDS011;31788;6.954;-71.872;2023-05-18T07:32:47;3.90;;;2.30;;
46054;SDS011;31788;6.954;-71.872;2023-05-18T07:35:15;4.38;;;2.13;;
46054;SDS011;31788;6.954;-71.872;2023-05-18T07:37:44;4.68;;;2.50;;
46054;SDS011;31788;6.954;-71.872;2023-05-18T07:40:11;5.13;;;2.10;;
46054;SDS011;31788;6.954;-71.872;2023-05-18T07:42:38;6.20;;;2.28;;
46054;SDS011;31788;6.954;-71.872;2023-05-18T07:45:05;5.78;;;2.15;;
46054;SDS011;31788;6.954;-71.872;2023-05-18T07:47:32;4.80;;;2.42;;
46054;SDS011;31788;6.954;-71.872;2023-05-18T07:49:59;5.60;;;2.70;;
46054;SDS011;31788;6.954;-71.872;2023-05-18T07:52:26;4.85;;;2.60;;
46054;SDS011;31788;6.954;-71.872;2023-05-18T07:54:55;6.53;;;2.50;;
46054;SDS011;31788;6.954;-71.872;2023-05-18T07:57:22;4.20;;;2.20;;
46054;SDS011;31788;6.954;-71.872;2023-05-18T07:59:49;4.53;;;2.20;;
46054;SDS011;31788;6.954;-71.872;2023-05-18T08:02:16;4.43;;;2.10;;
46054;SDS011;31788;6.954;-71.872;2023-05-18T08:04:44;3.55;;;2.08;;
46054;SDS011;31788;6.954;-71.872;2023-05-18T08:07:12;5.07;;;2.40;;
46054;SDS011;31788;6.954;-71.872;2023-05-18T08:09:39;4.70;;;2.45;;
46054;SDS011;31788;6.954;-71.872;2023-05-18T08:12:06;5.57;;;2.87;;
46054;SDS011;31788;6.954;-71.872;2023-05-18T08:14:33;4.17;;;2.30;;
46054;SDS011;31788;6.954;-71.872;2023-05-18T08:17:01;6.50;;;2.35;;
46054;SDS011;31788;6.954;-71.872;2023-05-18T08:19:28;4.80;;;2.25;;
46054;SDS011;31788;6.954;-71.872;2023-05-18T08:21:55;4.90;;;2.47;;
46054;SDS011;31788;6.954;-71.872;2023-05-18T08:24:22;5.30;;;2.50;;
46054;SDS011;31788;6.954;-71.872;2023-05-18T08:26:49;4.10;;;2.45;;
46054;SDS011;31788;6.954;-71.872;2023-05-18T08:29:16;4.03;;;2.20;;
46054;SDS011;31788;6.954;-71.872;2023-05-18T08:31:43;4.68;;;2.38;;
46054;SDS011;31788;6.954;-71.872;2023-05-18T08:34:10;4.85;;;2.40;;
46054;SDS011;31788;6.954;-71.872;2023-05-18T08:36:37;6.40;;;2.90;;
46054;SDS011;31788;6.954;-71.872;2023-05-18T08:39:05;7.38;;;2.47;;
46054;SDS011;31788;6.954;-71.872;2023-05-18T08:44:19;5.03;;;2.10;;
46054;SDS011;31788;6.954;-71.872;2023-05-18T08:46:50;9.02;;;3.50;;
46054;SDS011;31788;6.954;-71.872;2023-05-18T08:49:18;8.15;;;3.85;;
46054;SDS011;31788;6.954;-71.872;2023-05-18T08:51:55;6.32;;;3.30;;
46054;SDS011;31788;6.954;-71.872;2023-05-18T08:54:26;6.00;;;3.25;;
46054;SDS011;31788;6.954;-71.872;2023-05-18T08:56:54;6.65;;;3.33;;
46054;SDS011;31788;6.954;-71.872;2023-05-18T08:59:29;9.73;;;3.85;;
46054;SDS011;31788;6.954;-71.872;2023-05-18T09:01:58;7.22;;;3.80;;
46054;SDS011;31788;6.954;-71.872;2023-05-18T09:04:24;7.75;;;3.38;;
46054;SDS011;31788;6.954;-71.872;2023-05-18T09:06:52;8.07;;;3.65;;
46054;SDS011;31788;6.954;-71.872;2023-05-18T09:09:20;6.80;;;3.70;;
46054;SDS011;31788;6.954;-71.872;2023-05-18T09:11:48;5.03;;;3.42;;
46054;SDS011;31788;6.954;-71.872;2023-05-18T09:14:15;6.88;;;3.40;;
46054;SDS011;31788;6.954;-71.872;2023-05-18T09:16:43;7.28;;;3.63;;
46054;SDS011;31788;6.954;-71.872;2023-05-18T09:19:09;12.30;;;6.43;;
46054;SDS011;31788;6.954;-71.872;2023-05-18T09:21:36;14.07;;;9.23;;
46054;SDS011;31788;6.954;-71.872;2023-05-18T09:24:03;15.70;;;10.60;;
46054;SDS011;31788;6.954;-71.872;2023-05-18T09:26:30;8.98;;;6.13;;
46054;SDS011;31788;6.954;-71.872;2023-05-18T09:28:57;9.18;;;4.97;;
46054;SDS011;31788;6.954;-71.872;2023-05-18T09:31:24;7.35;;;4.30;;
46054;SDS011;31788;6.954;-71.872;2023-05-18T09:33:51;8.05;;;4.15;;
46054;SDS011;31788;6.954;-71.872;2023-05-18T09:36:22;7.63;;;3.40;;
46054;SDS011;31788;6.954;-71.872;2023-05-18T09:38:50;6.43;;;3.20;;
46054;SDS011;31788;6.954;-71.872;2023-05-18T09:41:17;5.97;;;2.63;;
46054;SDS011;31788;6.954;-71.872;2023-05-18T09:43:46;4.90;;;2.55;;
46054;SDS011;31788;6.954;-71.872;2023-05-18T09:46:13;5.10;;;2.35;;
46054;SDS011;31788;6.954;-71.872;2023-05-18T09:48:41;3.30;;;2.20;;
46054;SDS011;31788;6.954;-71.872;2023-05-18T09:51:10;6.80;;;2.67;;
46054;SDS011;31788;6.954;-71.872;2023-05-18T09:53:46;4.47;;;2.30;;
46054;SDS011;31788;6.954;-71.872;2023-05-18T09:56:17;6.78;;;2.72;;
46054;SDS011;31788;6.954;-71.872;2023-05-18T09:58:45;4.70;;;3.20;;
46054;SDS011;31788;6.954;-71.872;2023-05-18T10:01:13;5.50;;;3.60;;
46054;SDS011;31788;6.954;-71.872;2023-05-18T10:03:39;6.78;;;2.53;;
46054;SDS011;31788;6.954;-71.872;2023-05-18T10:06:07;7.27;;;3.47;;
46054;SDS011;31788;6.954;-71.872;2023-05-18T10:08:36;5.00;;;3.40;;
46054;SDS011;31788;6.954;-71.872;2023-05-18T10:11:03;6.30;;;3.58;;
46054;SDS011;31788;6.954;-71.872;2023-05-18T10:13:31;5.32;;;2.80;;
46054;SDS011;31788;6.954;-71.872;2023-05-18T10:16:00;8.45;;;6.53;;
46054;SDS011;31788;6.954;-71.872;2023-05-18T10:18:29;6.80;;;2.85;;
46054;SDS011;31788;6.954;-71.872;2023-05-18T10:21:01;5.90;;;2.72;;
46054;SDS011;31788;6.954;-71.872;2023-05-18T10:23:30;9.18;;;2.88;;
46054;SDS011;31788;6.954;-71.872;2023-05-18T10:25:58;8.05;;;2.67;;
46054;SDS011;31788;6.954;-71.872;2023-05-18T10:28:25;5.28;;;2.15;;
46054;SDS011;31788;6.954;-71.872;2023-05-18T10:30:58;4.45;;;2.40;;
46054;SDS011;31788;6.954;-71.872;2023-05-18T10:33:26;4.97;;;2.10;;
46054;SDS011;31788;6.954;-71.872;2023-05-18T10:35:55;5.13;;;2.53;;
46054;SDS011;31788;6.954;-71.872;2023-05-18T10:38:23;7.85;;;2.47;;
46054;SDS011;31788;6.954;-71.872;2023-05-18T10:40:52;6.38;;;2.47;;
46054;SDS011;31788;6.954;-71.872;2023-05-18T10:43:25;7.22;;;2.08;;
46054;SDS011;31788;6.954;-71.872;2023-05-18T10:45:53;6.65;;;2.55;;
46054;SDS011;31788;6.954;-71.872;2023-05-18T10:48:22;5.67;;;2.87;;
46054;SDS011;31788;6.954;-71.872;2023-05-18T10:50:50;7.07;;;2.60;;
46054;SDS011;31788;6.954;-71.872;2023-05-18T10:53:19;6.85;;;2.60;;
46054;SDS011;31788;6.954;-71.872;2023-05-18T10:55:51;6.70;;;2.50;;
46054;SDS011;31788;6.954;-71.872;2023-05-18T10:58:19;8.45;;;2.80;;
46054;SDS011;31788;6.954;-71.872;2023-05-18T11:00:50;5.07;;;2.72;;
46054;SDS011;31788;6.954;-71.872;2023-05-18T11:03:20;7.00;;;2.90;;
46054;SDS011;31788;6.954;-71.872;2023-05-18T11:05:50;6.63;;;3.20;;
46054;SDS011;31788;6.954;-71.872;2023-05-18T11:08:47;7.30;;;3.30;;
46054;SDS011;31788;6.954;-71.872;2023-05-18T11:11:16;6.10;;;2.90;;
46054;SDS011;31788;6.954;-71.872;2023-05-18T11:13:49;6.60;;;3.20;;
46054;SDS011;31788;6.954;-71.872;2023-05-18T11:16:16;6.80;;;3.47;;
46054;SDS011;31788;6.954;-71.872;2023-05-18T11:18:44;8.02;;;3.40;;
46054;SDS011;31788;6.954;-71.872;2023-05-18T11:26:56;8.63;;;3.40;;
46054;SDS011;31788;6.954;-71.872;2023-05-18T11:29:29;8.32;;;3.40;;
46054;SDS011;31788;6.954;-71.872;2023-05-18T11:32:00;6.35;;;3.47;;
46054;SDS011;31788;6.954;-71.872;2023-05-18T11:34:45;5.80;;;3.00;;
46054;SDS011;31788;6.954;-71.872;2023-05-18T11:40:03;5.15;;;2.75;;
46054;SDS011;31788;6.954;-71.872;2023-05-18T11:42:34;6.68;;;2.97;;
46054;SDS011;31788;6.954;-71.872;2023-05-18T11:47:35;4.03;;;2.40;;
46054;SDS011;31788;6.954;-71.872;2023-05-18T11:50:10;5.07;;;2.30;;
46054;SDS011;31788;6.954;-71.872;2023-05-18T11:52:46;4.18;;;2.00;;
46054;SDS011;31788;6.954;-71.872;2023-05-18T11:55:17;6.43;;;2.17;;
46054;SDS011;31788;6.954;-71.872;2023-05-18T11:57:47;6.57;;;2.35;;
46054;SDS011;31788;6.954;-71.872;2023-05-18T12:00:16;4.50;;;2.30;;
46054;SDS011;31788;6.954;-71.872;2023-05-18T12:02:47;5.90;;;2.25;;
46054;SDS011;31788;6.954;-71.872;2023-05-18T12:05:14;5.97;;;3.10;;
46054;SDS011;31788;6.954;-71.872;2023-05-18T12:07:43;7.28;;;3.55;;
46054;SDS011;31788;6.954;-71.872;2023-05-18T12:10:16;4.85;;;2.83;;
46054;SDS011;31788;6.954;-71.872;2023-05-18T12:12:50;5.37;;;2.60;;
46054;SDS011;31788;6.954;-71.872;2023-05-18T12:15:20;4.78;;;2.50;;
46054;SDS011;31788;6.954;-71.872;2023-05-18T12:17:48;4.80;;;2.90;;
46054;SDS011;31788;6.954;-71.872;2023-05-18T12:20:16;6.70;;;2.78;;
46054;SDS011;31788;6.954;-71.872;2023-05-18T12:22:50;5.80;;;2.90;;
46054;SDS011;31788;6.954;-71.872;2023-05-18T12:25:18;5.30;;;2.80;;
46054;SDS011;31788;6.954;-71.872;2023-05-18T12:27:48;8.23;;;2.80;;
46054;SDS011;31788;6.954;-71.872;2023-05-18T12:30:20;9.30;;;3.08;;
46054;SDS011;31788;6.954;-71.872;2023-05-18T12:32:54;6.90;;;3.03;;
46054;SDS011;31788;6.954;-71.872;2023-05-18T12:35:22;8.95;;;3.25;;
46054;SDS011;31788;6.954;-71.872;2023-05-18T12:37:50;8.82;;;3.28;;
46054;SDS011;31788;6.954;-71.872;2023-05-18T12:40:21;7.53;;;3.08;;
46054;SDS011;31788;6.954;-71.872;2023-05-18T12:42:54;12.43;;;3.40;;
46054;SDS011;31788;6.954;-71.872;2023-05-18T12:45:31;15.68;;;4.05;;
46054;SDS011;31788;6.954;-71.872;2023-05-18T12:48:08;13.80;;;3.55;;
46054;SDS011;31788;6.954;-71.872;2023-05-18T12:50:44;6.97;;;2.88;;
46054;SDS011;31788;6.954;-71.872;2023-05-18T12:53:12;6.85;;;3.00;;
46054;SDS011;31788;6.954;-71.872;2023-05-18T12:55:39;8.02;;;3.38;;
46054;SDS011;31788;6.954;-71.872;2023-05-18T12:58:10;5.85;;;3.13;;
46054;SDS011;31788;6.954;-71.872;2023-05-18T13:00:42;12.52;;;3.17;;
46054;SDS011;31788;6.954;-71.872;2023-05-18T13:03:11;10.63;;;3.10;;
46054;SDS011;31788;6.954;-71.872;2023-05-18T13:05:40;10.07;;;3.63;;
46054;SDS011;31788;6.954;-71.872;2023-05-18T13:08:15;9.45;;;3.10;;
46054;SDS011;31788;6.954;-71.872;2023-05-18T13:10:47;7.35;;;3.08;;
46054;SDS011;31788;6.954;-71.872;2023-05-18T13:13:14;8.68;;;3.58;;
46054;SDS011;31788;6.954;-71.872;2023-05-18T13:15:42;8.10;;;3.25;;
46054;SDS011;31788;6.954;-71.872;2023-05-18T13:18:10;10.05;;;3.28;;
46054;SDS011;31788;6.954;-71.872;2023-05-18T13:20:48;7.60;;;3.08;;
46054;SDS011;31788;6.954;-71.872;2023-05-18T13:23:16;10.35;;;3.25;;
46054;SDS011;31788;6.954;-71.872;2023-05-18T13:25:47;7.15;;;3.40;;
46054;SDS011;31788;6.954;-71.872;2023-05-18T13:28:15;20.30;;;4.90;;
46054;SDS011;31788;6.954;-71.872;2023-05-18T13:30:42;14.85;;;3.75;;
46054;SDS011;31788;6.954;-71.872;2023-05-18T13:33:10;10.05;;;4.07;;
46054;SDS011;31788;6.954;-71.872;2023-05-18T13:35:37;17.52;;;3.97;;
46054;SDS011;31788;6.954;-71.872;2023-05-18T13:38:06;11.75;;;3.75;;
46054;SDS011;31788;6.954;-71.872;2023-05-18T13:40:39;9.82;;;4.00;;
46054;SDS011;31788;6.954;-71.872;2023-05-18T13:43:06;9.75;;;3.60;;
46054;SDS011;31788;6.954;-71.872;2023-05-18T13:45:36;8.07;;;3.53;;
46054;SDS011;31788;6.954;-71.872;2023-05-18T13:48:03;6.78;;;3.30;;
46054;SDS011;31788;6.954;-71.872;2023-05-18T13:50:31;10.45;;;3.63;;
46054;SDS011;31788;6.954;-71.872;2023-05-18T13:52:58;7.10;;;3.30;;
46054;SDS011;31788;6.954;-71.872;2023-05-18T13:55:25;7.47;;;3.20;;
46054;SDS011;31788;6.954;-71.872;2023-05-18T13:57:52;6.85;;;2.95;;
46054;SDS011;31788;6.954;-71.872;2023-05-18T14:00:19;4.72;;;2.72;;
46054;SDS011;31788;6.954;-71.872;2023-05-18T14:02:46;6.95;;;2.90;;
46054;SDS011;31788;6.954;-71.872;2023-05-18T14:05:13;6.85;;;2.88;;
46054;SDS011;31788;6.954;-71.872;2023-05-18T14:07:41;6.23;;;2.67;;
46054;SDS011;31788;6.954;-71.872;2023-05-18T14:10:09;4.85;;;2.60;;
46054;SDS011;31788;6.954;-71.872;2023-05-18T14:12:36;5.70;;;2.60;;
46054;SDS011;31788;6.954;-71.872;2023-05-18T14:15:03;4.47;;;2.22;;
46054;SDS011;31788;6.954;-71.872;2023-05-18T14:17:31;4.15;;;2.50;;
46054;SDS011;31788;6.954;-71.872;2023-05-18T14:19:58;5.13;;;2.67;;
46054;SDS011;31788;6.954;-71.872;2023-05-18T14:22:25;5.57;;;2.42;;
46054;SDS011;31788;6.954;-71.872;2023-05-18T14:24:52;5.57;;;2.23;;
46054;SDS011;31788;6.954;-71.872;2023-05-18T14:27:19;4.38;;;1.98;;
46054;SDS011;31788;6.954;-71.872;2023-05-18T14:29:45;4.25;;;2.10;;
46054;SDS011;31788;6.954;-71.872;2023-05-18T14:32:13;4.00;;;2.60;;
46054;SDS011;31788;6.954;-71.872;2023-05-18T14:34:41;5.07;;;2.17;;
46054;SDS011;31788;6.954;-71.872;2023-05-18T14:37:07;3.78;;;2.50;;
46054;SDS011;31788;6.954;-71.872;2023-05-18T14:39:37;4.80;;;2.80;;
46054;SDS011;31788;6.954;-71.872;2023-05-18T14:42:04;3.28;;;2.38;;
46054;SDS011;31788;6.954;-71.872;2023-05-18T14:44:31;4.53;;;2.63;;
46054;SDS011;31788;6.954;-71.872;2023-05-18T14:46:58;4.22;;;2.40;;
46054;SDS011;31788;6.954;-71.872;2023-05-18T14:49:24;7.53;;;2.67;;
46054;SDS011;31788;6.954;-71.872;2023-05-18T14:51:51;5.75;;;2.60;;
46054;SDS011;31788;6.954;-71.872;2023-05-18T14:54:18;5.07;;;2.72;;
46054;SDS011;31788;6.954;-71.872;2023-05-18T14:56:44;5.22;;;2.63;;
46054;SDS011;31788;6.954;-71.872;2023-05-18T14:59:11;5.70;;;2.90;;
46054;SDS011;31788;6.954;-71.872;2023-05-18T15:01:38;5.38;;;2.70;;
46054;SDS011;31788;6.954;-71.872;2023-05-18T15:04:04;6.07;;;2.88;;
46054;SDS011;31788;6.954;-71.872;2023-05-18T15:06:31;5.90;;;2.75;;
46054;SDS011;31788;6.954;-71.872;2023-05-18T15:08:58;5.72;;;3.00;;
46054;SDS011;31788;6.954;-71.872;2023-05-18T15:11:24;4.97;;;2.88;;
46054;SDS011;31788;6.954;-71.872;2023-05-18T15:13:51;4.38;;;2.70;;
46054;SDS011;31788;6.954;-71.872;2023-05-18T15:16:18;4.57;;;2.73;;
46054;SDS011;31788;6.954;-71.872;2023-05-18T15:18:44;7.28;;;3.20;;
46054;SDS011;31788;6.954;-71.872;2023-05-18T15:21:11;3.92;;;2.80;;
46054;SDS011;31788;6.954;-71.872;2023-05-18T15:23:38;5.72;;;3.03;;
46054;SDS011;31788;6.954;-71.872;2023-05-18T15:26:05;5.57;;;3.10;;
46054;SDS011;31788;6.954;-71.872;2023-05-18T15:28:32;6.30;;;3.40;;
46054;SDS011;31788;6.954;-71.872;2023-05-18T15:30:59;6.07;;;3.50;;
46054;SDS011;31788;6.954;-71.872;2023-05-18T15:33:25;7.07;;;3.25;;
46054;SDS011;31788;6.954;-71.872;2023-05-18T15:35:52;6.53;;;3.40;;
46054;SDS011;31788;6.954;-71.872;2023-05-18T15:38:19;8.27;;;3.15;;
46054;SDS011;31788;6.954;-71.872;2023-05-18T15:40:45;4.90;;;3.08;;
46054;SDS011;31788;6.954;-71.872;2023-05-18T15:43:12;4.68;;;3.00;;
46054;SDS011;31788;6.954;-71.872;2023-05-18T15:45:39;5.05;;;2.90;;
46054;SDS011;31788;6.954;-71.872;2023-05-18T15:48:05;5.57;;;2.78;;
46054;SDS011;31788;6.954;-71.872;2023-05-18T15:50:32;4.88;;;2.47;;
46054;SDS011;31788;6.954;-71.872;2023-05-18T15:52:59;5.03;;;2.70;;
46054;SDS011;31788;6.954;-71.872;2023-05-18T15:55:27;6.35;;;2.58;;
46054;SDS011;31788;6.954;-71.872;2023-05-18T15:57:53;4.83;;;2.47;;
46054;SDS011;31788;6.954;-71.872;2023-05-18T16:00:20;4.57;;;2.22;;
46054;SDS011;31788;6.954;-71.872;2023-05-18T16:02:48;5.00;;;1.95;;
46054;SDS011;31788;6.954;-71.872;2023-05-18T16:05:14;4.63;;;1.85;;
46054;SDS011;31788;6.954;-71.872;2023-05-18T16:07:41;6.43;;;2.95;;
46054;SDS011;31788;6.954;-71.872;2023-05-18T16:10:08;10.73;;;6.38;;